createdAt,value
2023-01-19T00:00:51.955Z,-3.20
2023-01-19T00:03:18.793Z,-3.30
2023-01-19T00:05:46.045Z,-3.40
2023-01-19T00:08:17.389Z,-3.40
2023-01-19T00:10:46.761Z,-3.50
2023-01-19T00:13:14.892Z,-3.60
2023-01-19T00:15:42.032Z,-3.60
2023-01-19T00:18:10.707Z,-3.70
2023-01-19T00:20:38.257Z,-3.70
2023-01-19T00:23:07.578Z,-3.80
2023-01-19T00:25:34.377Z,-3.80
2023-01-19T00:28:01.866Z,-3.90
2023-01-19T00:30:29.506Z,-3.90
2023-01-19T00:32:56.494Z,-4.00
2023-01-19T00:35:23.298Z,-4.00
2023-01-19T00:37:50.219Z,-4.10
2023-01-19T00:40:17.359Z,-4.10
2023-01-19T00:42:44.571Z,-4.20
2023-01-19T00:45:16.846Z,-4.20
2023-01-19T00:47:43.513Z,-4.30
2023-01-19T00:50:11.980Z,-4.40
2023-01-19T00:52:42.399Z,-4.40
2023-01-19T00:55:11.003Z,-4.40
2023-01-19T00:57:38.965Z,-4.40
2023-01-19T01:00:07.755Z,-4.50
2023-01-19T01:02:34.979Z,-4.50
2023-01-19T01:05:02.986Z,-4.60
2023-01-19T01:07:30.817Z,-4.70
2023-01-19T01:09:57.608Z,-4.70
2023-01-19T01:12:24.610Z,-4.80
2023-01-19T01:14:51.427Z,-4.90
2023-01-19T01:17:24.814Z,-4.90
2023-01-19T01:19:52.191Z,-4.90
2023-01-19T01:22:19.010Z,-5.00
2023-01-19T01:24:45.888Z,-5.10
2023-01-19T01:27:13.256Z,-5.20
2023-01-19T01:29:41.267Z,-5.20
2023-01-19T01:32:08.340Z,-5.20
2023-01-19T01:34:35.320Z,-5.30
2023-01-19T01:37:02.954Z,-5.30
2023-01-19T01:39:32.703Z,-5.30
2023-01-19T01:41:59.397Z,-5.30
2023-01-19T01:44:49.541Z,-5.40
2023-01-19T01:47:25.119Z,-5.40
2023-01-19T01:49:59.368Z,-5.40
2023-01-19T01:52:32.350Z,-5.50
2023-01-19T01:55:00.114Z,-5.50
2023-01-19T01:57:27.962Z,-5.50
2023-01-19T01:59:57.055Z,-5.50
2023-01-19T02:02:46.486Z,-5.50
2023-01-19T02:05:37.865Z,-5.60
2023-01-19T02:08:31.431Z,-5.60
2023-01-19T02:11:17.776Z,-5.70
2023-01-19T02:13:46.855Z,-5.80
2023-01-19T02:16:15.454Z,-5.80
2023-01-19T02:18:43.196Z,-5.80
2023-01-19T02:21:12.775Z,-5.90
2023-01-19T02:23:47.020Z,-5.90
2023-01-19T02:26:24.897Z,-6.00
2023-01-19T02:29:08.565Z,-6.00
2023-01-19T02:31:37.269Z,-6.10
2023-01-19T02:34:05.285Z,-6.10
2023-01-19T02:36:50.192Z,-6.10
2023-01-19T02:39:22.728Z,-6.10
2023-01-19T02:41:54.946Z,-6.20
2023-01-19T02:44:24.227Z,-6.10
2023-01-19T02:46:54.153Z,-6.10
2023-01-19T02:49:20.822Z,-6.10
2023-01-19T02:51:47.883Z,-6.20
2023-01-19T02:54:41.985Z,-6.10
2023-01-19T02:57:23.454Z,-6.10
2023-01-19T03:00:15.540Z,-6.10
2023-01-19T03:03:07.035Z,-6.10
2023-01-19T03:06:08.326Z,-6.10
2023-01-19T03:08:54.748Z,-6.20
2023-01-19T03:11:26.988Z,-6.20
2023-01-19T03:14:00.951Z,-6.20
2023-01-19T03:16:50.238Z,-6.30
2023-01-19T03:19:31.899Z,-6.40
2023-01-19T03:22:02.845Z,-6.40
2023-01-19T03:24:35.424Z,-6.40
2023-01-19T03:27:11.449Z,-6.50
2023-01-19T03:29:42.418Z,-6.50
2023-01-19T03:32:14.265Z,-6.60
2023-01-19T03:34:43.236Z,-6.50
2023-01-19T03:37:11.596Z,-6.50
2023-01-19T03:39:38.483Z,-6.60
2023-01-19T03:42:08.109Z,-6.60
2023-01-19T03:44:37.896Z,-6.60
2023-01-19T03:47:09.139Z,-6.50
2023-01-19T03:49:37.869Z,-6.60
2023-01-19T03:52:05.353Z,-6.60
2023-01-19T03:54:32.436Z,-6.70
2023-01-19T03:56:59.456Z,-6.70
2023-01-19T03:59:26.245Z,-6.80
2023-01-19T04:01:53.011Z,-6.90
2023-01-19T04:04:19.728Z,-6.90
2023-01-19T04:06:46.509Z,-6.90
2023-01-19T04:09:16.787Z,-7.00
2023-01-19T04:11:44.288Z,-7.00
2023-01-19T04:14:11.119Z,-7.00
2023-01-19T04:16:37.842Z,-7.00
2023-01-19T04:19:04.607Z,-7.10
2023-01-19T04:21:31.313Z,-7.10
2023-01-19T04:23:58.974Z,-7.10
2023-01-19T04:26:25.732Z,-7.10
2023-01-19T04:28:52.511Z,-7.20
2023-01-19T04:31:19.452Z,-7.20
2023-01-19T04:33:46.323Z,-7.20
2023-01-19T04:36:13.033Z,-7.20
2023-01-19T04:38:39.813Z,-7.30
2023-01-19T04:41:06.478Z,-7.30
2023-01-19T04:43:33.847Z,-7.30
2023-01-19T04:46:00.660Z,-7.40
2023-01-19T04:48:27.353Z,-7.40
2023-01-19T04:50:54.059Z,-7.40
2023-01-19T04:53:20.906Z,-7.50
2023-01-19T04:55:47.784Z,-7.50
2023-01-19T04:58:15.775Z,-7.50
2023-01-19T05:00:43.284Z,-7.50
2023-01-19T05:03:10.035Z,-7.50
2023-01-19T05:05:36.797Z,-7.60
2023-01-19T05:08:03.616Z,-7.60
2023-01-19T05:10:30.297Z,-7.60
2023-01-19T05:12:57.597Z,-7.60
2023-01-19T05:15:24.328Z,-7.70
2023-01-19T05:17:51.087Z,-7.80
2023-01-19T05:20:17.974Z,-7.70
2023-01-19T05:22:52.488Z,-7.70
2023-01-19T05:25:19.660Z,-7.60
2023-01-19T05:27:46.826Z,-7.60
2023-01-19T05:30:14.227Z,-7.70
2023-01-19T05:32:41.245Z,-7.70
2023-01-19T05:35:08.390Z,-7.70
2023-01-19T05:37:35.184Z,-7.80
2023-01-19T05:40:01.913Z,-7.80
2023-01-19T05:42:29.095Z,-7.80
2023-01-19T05:44:56.617Z,-7.80
2023-01-19T05:47:23.367Z,-7.80
2023-01-19T05:49:50.070Z,-7.80
2023-01-19T05:52:16.884Z,-7.90
2023-01-19T05:54:43.850Z,-7.90
2023-01-19T05:57:11.766Z,-7.90
2023-01-19T05:59:38.540Z,-7.90
2023-01-19T06:02:05.376Z,-8.00
2023-01-19T06:04:32.434Z,-8.00
2023-01-19T06:06:59.225Z,-8.00
2023-01-19T06:09:25.910Z,-8.00
2023-01-19T06:11:54.253Z,-7.90
2023-01-19T06:14:21.136Z,-7.90
2023-01-19T06:16:47.984Z,-7.80
2023-01-19T06:19:15.126Z,-7.90
2023-01-19T06:21:42.020Z,-7.90
2023-01-19T06:24:09.914Z,-7.90
2023-01-19T06:26:37.464Z,-8.00
2023-01-19T06:29:04.291Z,-8.10
2023-01-19T06:31:33.406Z,-8.10
2023-01-19T06:34:00.200Z,-8.20
2023-01-19T06:36:26.948Z,-8.20
2023-01-19T06:38:53.853Z,-8.20
2023-01-19T06:41:20.733Z,-8.20
2023-01-19T06:43:47.510Z,-8.20
2023-01-19T06:46:14.437Z,-8.30
2023-01-19T06:48:41.273Z,-8.30
2023-01-19T06:51:13.143Z,-8.30
2023-01-19T06:53:39.951Z,-8.30
2023-01-19T06:56:08.088Z,-8.40
2023-01-19T06:58:35.008Z,-8.30
2023-01-19T07:01:05.570Z,-8.40
2023-01-19T07:03:33.191Z,-8.40
2023-01-19T07:06:02.349Z,-8.30
2023-01-19T07:08:30.111Z,-8.30
2023-01-19T07:11:25.005Z,-8.30
2023-01-19T07:13:51.566Z,-8.20
2023-01-19T07:16:18.819Z,-8.20
2023-01-19T07:18:48.083Z,-8.20
2023-01-19T07:21:15.440Z,-8.20
2023-01-19T07:23:43.313Z,-8.20
2023-01-19T07:26:10.545Z,-8.20
2023-01-19T07:28:37.341Z,-8.20
2023-01-19T07:31:04.350Z,-8.20
2023-01-19T07:33:31.207Z,-8.10
2023-01-19T07:35:58.382Z,-8.00
2023-01-19T07:38:25.325Z,-8.00
2023-01-19T07:40:52.047Z,-8.10
2023-01-19T07:43:18.739Z,-8.20
2023-01-19T07:45:45.536Z,-8.10
2023-01-19T07:48:12.333Z,-8.10
2023-01-19T07:50:39.032Z,-8.10
2023-01-19T07:53:11.668Z,-8.10
2023-01-19T07:55:38.346Z,-8.10
2023-01-19T07:58:07.327Z,-8.00
2023-01-19T08:00:36.364Z,-8.00
2023-01-19T08:03:04.724Z,-7.90
2023-01-19T08:05:35.500Z,-8.00
2023-01-19T08:08:02.264Z,-7.90
2023-01-19T08:10:29.667Z,-7.90
2023-01-19T08:12:57.787Z,-7.80
2023-01-19T08:15:25.159Z,-7.80
2023-01-19T08:18:02.758Z,-7.80
2023-01-19T08:20:30.003Z,-7.80
2023-01-19T08:23:01.282Z,-7.70
2023-01-19T08:25:38.791Z,-7.60
2023-01-19T08:28:07.205Z,-7.60
2023-01-19T08:30:34.061Z,-7.40
2023-01-19T08:33:04.461Z,-7.30
2023-01-19T08:35:32.053Z,-7.20
2023-01-19T08:38:01.527Z,-7.10
2023-01-19T08:40:35.878Z,-7.00
2023-01-19T08:43:11.409Z,-7.00
2023-01-19T08:45:44.839Z,-6.80
2023-01-19T08:48:12.358Z,-6.70
2023-01-19T08:50:39.923Z,-6.60
2023-01-19T08:53:07.133Z,-6.60
2023-01-19T08:55:35.687Z,-6.60
2023-01-19T08:58:04.759Z,-6.60
2023-01-19T09:00:34.277Z,-6.50
2023-01-19T09:03:04.122Z,-6.40
2023-01-19T09:05:35.537Z,-6.30
2023-01-19T09:08:03.822Z,-6.20
2023-01-19T09:10:37.971Z,-6.00
2023-01-19T09:13:08.216Z,-5.90
2023-01-19T09:15:37.531Z,-5.70
2023-01-19T09:18:07.140Z,-5.50
2023-01-19T09:20:36.204Z,-5.60
2023-01-19T09:23:03.080Z,-5.70
2023-01-19T09:25:29.946Z,-5.80
2023-01-19T09:27:56.744Z,-5.70
2023-01-19T09:30:23.484Z,-5.70
2023-01-19T09:32:50.327Z,-5.60
2023-01-19T09:35:17.217Z,-5.50
2023-01-19T09:37:47.727Z,-5.40
2023-01-19T09:40:18.698Z,-5.20
2023-01-19T09:42:52.561Z,-5.10
2023-01-19T09:45:31.208Z,-4.70
2023-01-19T09:48:00.216Z,-4.30
2023-01-19T09:50:34.058Z,-3.90
2023-01-19T09:53:18.856Z,-3.90
2023-01-19T09:55:45.713Z,-3.60
2023-01-19T09:58:16.393Z,-3.20
2023-01-19T10:00:47.939Z,-2.80
2023-01-19T10:03:17.000Z,-2.60
2023-01-19T10:05:49.088Z,-2.60
2023-01-19T10:08:22.951Z,-2.50
2023-01-19T10:10:54.285Z,-2.50
2023-01-19T10:13:28.812Z,-2.30
2023-01-19T10:16:14.591Z,-2.20
2023-01-19T10:18:51.577Z,-2.20
2023-01-19T10:21:42.073Z,-2.30
2023-01-19T10:24:11.730Z,-2.20
2023-01-19T10:26:49.601Z,-2.20
2023-01-19T10:29:22.475Z,-2.10
2023-01-19T10:31:51.761Z,-2.00
2023-01-19T10:34:23.652Z,-1.90
2023-01-19T10:36:59.445Z,-1.80
2023-01-19T10:39:26.406Z,-1.50
2023-01-19T10:41:53.858Z,-1.10
2023-01-19T10:44:28.653Z,-0.80
2023-01-19T10:46:58.775Z,-0.80
2023-01-19T10:49:28.637Z,-0.20
2023-01-19T10:51:58.678Z,-0.20
2023-01-19T10:54:27.673Z,0.20
2023-01-19T10:56:59.305Z,0.40
2023-01-19T10:59:44.536Z,0.40
2023-01-19T11:02:26.362Z,0.60
2023-01-19T11:04:56.115Z,0.40
2023-01-19T11:07:33.582Z,0.30
2023-01-19T11:10:15.588Z,0.20
2023-01-19T11:12:54.077Z,0.20
2023-01-19T11:15:29.095Z,0.00
2023-01-19T11:17:56.235Z,0.00
2023-01-19T11:20:27.773Z,-0.10
2023-01-19T11:23:06.359Z,-0.10
2023-01-19T11:25:35.685Z,-0.20
2023-01-19T11:28:03.280Z,-0.30
2023-01-19T11:30:30.602Z,-0.30
2023-01-19T11:32:57.665Z,-0.30
2023-01-19T11:35:41.358Z,-0.20
2023-01-19T11:38:17.161Z,-0.20
2023-01-19T11:40:55.471Z,-0.10
2023-01-19T11:43:24.414Z,-0.10
2023-01-19T11:45:51.884Z,0.10
2023-01-19T11:49:13.938Z,0.40
2023-01-19T11:51:58.339Z,0.60
2023-01-19T11:54:31.748Z,1.10
2023-01-19T11:57:00.376Z,1.20
2023-01-19T11:59:27.172Z,1.40
2023-01-19T12:01:58.337Z,1.30
2023-01-19T12:04:30.276Z,1.20
2023-01-19T12:06:59.654Z,1.20
2023-01-19T12:09:35.032Z,1.40
2023-01-19T12:12:05.031Z,1.50
2023-01-19T12:14:56.277Z,1.50
2023-01-19T12:17:35.357Z,1.60
2023-01-19T12:20:24.666Z,1.50
2023-01-19T12:23:02.931Z,1.70
2023-01-19T12:25:59.648Z,1.70
2023-01-19T12:28:31.156Z,1.80
2023-01-19T12:31:00.337Z,1.70
2023-01-19T12:33:35.001Z,1.60
2023-01-19T12:36:27.695Z,1.40
2023-01-19T12:39:04.835Z,1.30
2023-01-19T12:41:38.979Z,1.20
2023-01-19T12:44:12.061Z,1.10
2023-01-19T12:47:06.359Z,1.30
2023-01-19T12:50:06.783Z,1.40
2023-01-19T12:52:35.225Z,1.30
2023-01-19T12:55:14.038Z,1.10
2023-01-19T12:58:01.045Z,1.00
2023-01-19T13:00:34.022Z,1.20
2023-01-19T13:03:17.905Z,1.10
2023-01-19T13:05:44.705Z,1.20
2023-01-19T13:08:14.079Z,1.00
2023-01-19T13:11:13.740Z,1.00
2023-01-19T13:13:49.322Z,0.90
2023-01-19T13:16:18.853Z,0.80
2023-01-19T13:19:07.617Z,0.70
2023-01-19T13:21:48.476Z,0.70
2023-01-19T13:24:22.670Z,0.70
2023-01-19T13:26:49.404Z,0.70
2023-01-19T13:29:40.819Z,0.70
2023-01-19T13:32:17.587Z,0.60
2023-01-19T13:35:04.178Z,0.50
2023-01-19T13:37:39.285Z,0.50
2023-01-19T13:40:06.908Z,0.60
2023-01-19T13:42:37.926Z,0.50
2023-01-19T13:45:26.801Z,0.50
2023-01-19T13:47:56.703Z,0.50
2023-01-19T13:50:30.227Z,0.40
2023-01-19T13:52:58.964Z,0.40
2023-01-19T13:55:28.205Z,0.40
2023-01-19T13:57:55.515Z,0.40
2023-01-19T14:00:31.315Z,0.50
2023-01-19T14:03:18.614Z,0.50
2023-01-19T14:05:45.593Z,0.40
2023-01-19T14:08:15.224Z,0.40
2023-01-19T14:10:42.029Z,0.40
2023-01-19T14:13:18.434Z,0.40
2023-01-19T14:15:46.490Z,0.50
2023-01-19T14:18:19.362Z,0.40
2023-01-19T14:21:07.559Z,0.40
2023-01-19T14:23:42.337Z,0.40
2023-01-19T14:26:46.014Z,0.40
2023-01-19T14:29:19.317Z,0.40
2023-01-19T14:32:24.478Z,0.40
2023-01-19T14:35:04.264Z,0.30
2023-01-19T14:37:36.547Z,0.30
2023-01-19T14:40:11.008Z,0.30
2023-01-19T14:43:06.106Z,0.50
2023-01-19T14:45:41.390Z,0.40
2023-01-19T14:48:20.448Z,0.40
2023-01-19T14:51:02.400Z,0.40
2023-01-19T14:53:38.401Z,0.30
2023-01-19T14:56:06.775Z,0.40
2023-01-19T14:58:35.428Z,0.30
2023-01-19T15:01:02.379Z,0.20
2023-01-19T15:03:47.735Z,0.10
2023-01-19T15:06:17.425Z,0.00
2023-01-19T15:08:45.097Z,0.00
2023-01-19T15:11:29.020Z,0.00
2023-01-19T15:13:55.773Z,-0.10
2023-01-19T15:16:23.748Z,-0.10
2023-01-19T15:18:50.583Z,-0.20
2023-01-19T15:21:23.586Z,-0.20
2023-01-19T15:23:50.646Z,-0.20
2023-01-19T15:26:20.753Z,-0.20
2023-01-19T15:28:51.142Z,-0.30
2023-01-19T15:31:23.665Z,-0.40
2023-01-19T15:33:50.660Z,-0.30
2023-01-19T15:36:20.389Z,-0.40
2023-01-19T15:38:50.153Z,-0.30
2023-01-19T15:41:27.882Z,-0.40
2023-01-19T15:43:54.743Z,-0.40
2023-01-19T15:46:22.837Z,-0.50
2023-01-19T15:48:53.309Z,-0.40
2023-01-19T15:51:22.213Z,-0.50
2023-01-19T15:53:50.214Z,-0.50
2023-01-19T15:56:20.378Z,-0.60
2023-01-19T15:58:47.393Z,-0.60
2023-01-19T16:01:22.833Z,-0.60
2023-01-19T16:03:50.665Z,-0.60
2023-01-19T16:06:17.959Z,-0.60
2023-01-19T16:08:45.082Z,-0.70
2023-01-19T16:11:14.964Z,-0.70
2023-01-19T16:13:46.245Z,-0.70
2023-01-19T16:16:18.975Z,-0.80
2023-01-19T16:18:46.272Z,-0.70
2023-01-19T16:21:13.061Z,-0.80
2023-01-19T16:23:40.133Z,-0.80
2023-01-19T16:26:22.476Z,-0.80
2023-01-19T16:28:49.262Z,-0.80
2023-01-19T16:31:16.549Z,-0.90
2023-01-19T16:33:45.211Z,-0.90
2023-01-19T16:36:43.008Z,-0.90
2023-01-19T16:39:12.727Z,-1.00
2023-01-19T16:41:40.927Z,-1.00
2023-01-19T16:44:08.241Z,-1.10
2023-01-19T16:46:37.650Z,-1.10
2023-01-19T16:49:06.603Z,-1.10
2023-01-19T16:51:33.805Z,-1.10
2023-01-19T16:54:00.605Z,-1.10
2023-01-19T16:56:27.631Z,-1.20
2023-01-19T16:58:55.842Z,-1.20
2023-01-19T17:01:24.190Z,-1.20
2023-01-19T17:03:51.280Z,-1.20
2023-01-19T17:06:22.671Z,-1.20
2023-01-19T17:08:50.667Z,-1.20
2023-01-19T17:11:22.730Z,-1.20
2023-01-19T17:14:12.933Z,-1.20
2023-01-19T17:16:40.052Z,-1.30
2023-01-19T17:19:07.964Z,-1.30
2023-01-19T17:21:35.557Z,-1.30
2023-01-19T17:24:02.227Z,-1.40
2023-01-19T17:26:30.954Z,-1.30
2023-01-19T17:29:02.240Z,-1.40
2023-01-19T17:31:30.589Z,-1.40
2023-01-19T17:33:58.069Z,-1.40
2023-01-19T17:36:27.588Z,-1.40
2023-01-19T17:38:57.195Z,-1.40
2023-01-19T17:41:29.469Z,-1.50
2023-01-19T17:43:57.061Z,-1.50
2023-01-19T17:46:25.859Z,-1.60
2023-01-19T17:48:58.081Z,-1.50
2023-01-19T17:51:25.893Z,-1.50
2023-01-19T17:53:53.842Z,-1.60
2023-01-19T17:56:25.864Z,-1.60
2023-01-19T17:58:52.640Z,-1.60
2023-01-19T18:01:22.106Z,-1.70
2023-01-19T18:03:49.179Z,-1.70
2023-01-19T18:06:16.428Z,-1.80
2023-01-19T18:08:46.112Z,-1.80
2023-01-19T18:11:14.078Z,-1.80
2023-01-19T18:13:43.728Z,-1.80
2023-01-19T18:16:12.982Z,-1.90
2023-01-19T18:18:40.605Z,-2.00
2023-01-19T18:21:10.708Z,-2.00
2023-01-19T18:23:37.973Z,-2.10
2023-01-19T18:26:11.035Z,-2.20
2023-01-19T18:28:37.994Z,-2.30
2023-01-19T18:31:09.308Z,-2.30
2023-01-19T18:33:36.535Z,-2.40
2023-01-19T18:36:03.481Z,-2.40
2023-01-19T18:38:30.256Z,-2.50
2023-01-19T18:41:18.168Z,-2.60
2023-01-19T18:43:45.169Z,-2.60
2023-01-19T18:46:12.119Z,-2.70
2023-01-19T18:48:39.556Z,-2.70
2023-01-19T18:51:14.085Z,-2.80
2023-01-19T18:53:41.146Z,-2.80
2023-01-19T18:56:11.036Z,-2.80
2023-01-19T18:58:38.763Z,-2.80
2023-01-19T19:01:20.806Z,-2.80
2023-01-19T19:03:47.829Z,-2.80
2023-01-19T19:06:16.739Z,-2.90
2023-01-19T19:08:44.184Z,-2.80
2023-01-19T19:11:14.167Z,-2.80
2023-01-19T19:13:41.383Z,-2.80
2023-01-19T19:16:09.916Z,-2.80
2023-01-19T19:18:38.606Z,-2.70
2023-01-19T19:21:11.783Z,-2.70
2023-01-19T19:23:38.942Z,-2.70
2023-01-19T19:26:09.625Z,-2.80
2023-01-19T19:28:38.201Z,-2.80
2023-01-19T19:31:11.097Z,-2.80
2023-01-19T19:33:38.865Z,-2.70
2023-01-19T19:36:07.190Z,-2.70
2023-01-19T19:38:36.635Z,-2.60
2023-01-19T19:41:08.117Z,-2.70
2023-01-19T19:43:35.591Z,-2.70
2023-01-19T19:46:13.198Z,-2.70
2023-01-19T19:48:40.202Z,-2.70
2023-01-19T19:51:18.602Z,-2.70
2023-01-19T19:53:46.245Z,-2.60
2023-01-19T19:56:13.838Z,-2.60
2023-01-19T19:58:42.147Z,-2.70
2023-01-19T20:01:10.141Z,-2.60
2023-01-19T20:03:37.481Z,-2.60
2023-01-19T20:06:06.750Z,-2.60
2023-01-19T20:08:34.179Z,-2.60
2023-01-19T20:11:06.298Z,-2.60
2023-01-19T20:13:35.890Z,-2.60
2023-01-19T20:16:10.234Z,-2.60
2023-01-19T20:18:44.743Z,-2.60
2023-01-19T20:21:17.073Z,-2.60
2023-01-19T20:23:45.546Z,-2.60
2023-01-19T20:26:14.522Z,-2.60
2023-01-19T20:28:41.460Z,-2.60
2023-01-19T20:31:19.384Z,-2.60
2023-01-19T20:33:48.184Z,-2.60
2023-01-19T20:36:15.504Z,-2.50
2023-01-19T20:38:42.845Z,-2.60
2023-01-19T20:41:12.442Z,-2.50
2023-01-19T20:43:39.743Z,-2.50
2023-01-19T20:46:07.109Z,-2.50
2023-01-19T20:48:33.825Z,-2.50
2023-01-19T20:51:09.720Z,-2.50
2023-01-19T20:53:38.554Z,-2.50
2023-01-19T20:56:12.152Z,-2.50
2023-01-19T20:58:39.580Z,-2.50
2023-01-19T21:01:15.117Z,-2.50
2023-01-19T21:03:42.249Z,-2.50
2023-01-19T21:06:09.531Z,-2.60
2023-01-19T21:08:36.800Z,-2.60
2023-01-19T21:11:03.911Z,-2.60
2023-01-19T21:13:31.573Z,-2.60
2023-01-19T21:15:59.064Z,-2.60
2023-01-19T21:18:27.988Z,-2.60
2023-01-19T21:20:57.354Z,-2.50
2023-01-19T21:23:25.097Z,-2.60
2023-01-19T21:25:57.632Z,-2.60
2023-01-19T21:28:24.997Z,-2.60
2023-01-19T21:30:53.402Z,-2.60
2023-01-19T21:33:21.574Z,-2.50
2023-01-19T21:35:56.895Z,-2.60
2023-01-19T21:38:26.815Z,-2.60
2023-01-19T21:40:54.289Z,-2.60
2023-01-19T21:43:21.718Z,-2.60
2023-01-19T21:45:49.106Z,-2.60
2023-01-19T21:48:17.211Z,-2.60
2023-01-19T21:50:44.416Z,-2.60
2023-01-19T21:53:11.598Z,-2.60
2023-01-19T21:55:42.812Z,-2.60
2023-01-19T21:58:09.562Z,-2.60
2023-01-19T22:00:36.323Z,-2.60
2023-01-19T22:03:04.616Z,-2.60
2023-01-19T22:05:36.696Z,-2.60
2023-01-19T22:08:04.482Z,-2.60
2023-01-19T22:10:31.250Z,-2.70
2023-01-19T22:12:57.950Z,-2.60
2023-01-19T22:15:24.738Z,-2.60
2023-01-19T22:17:51.443Z,-2.60
2023-01-19T22:20:18.308Z,-2.60
2023-01-19T22:22:45.052Z,-2.60
2023-01-19T22:25:12.078Z,-2.60
2023-01-19T22:27:39.116Z,-2.60
2023-01-19T22:30:06.429Z,-2.60
2023-01-19T22:32:33.120Z,-2.60
2023-01-19T22:34:59.916Z,-2.70
2023-01-19T22:37:26.629Z,-2.70
2023-01-19T22:39:53.536Z,-2.70
2023-01-19T22:42:20.273Z,-2.70
2023-01-19T22:44:47.045Z,-2.80
2023-01-19T22:47:13.785Z,-2.80
2023-01-19T22:49:40.764Z,-2.80
2023-01-19T22:52:07.684Z,-2.70
2023-01-19T22:54:34.489Z,-2.70
2023-01-19T22:57:01.296Z,-2.70
2023-01-19T22:59:28.104Z,-2.80
2023-01-19T23:01:54.906Z,-2.70
2023-01-19T23:04:21.706Z,-2.70
2023-01-19T23:06:50.722Z,-2.70
2023-01-19T23:09:17.928Z,-2.70
2023-01-19T23:11:51.135Z,-2.70
2023-01-19T23:14:20.150Z,-2.70
2023-01-19T23:16:47.467Z,-2.70
2023-01-19T23:19:14.445Z,-2.70
2023-01-19T23:21:41.608Z,-2.70
2023-01-19T23:24:08.979Z,-2.80
2023-01-19T23:26:38.900Z,-2.80
2023-01-19T23:29:08.257Z,-2.80
2023-01-19T23:31:37.973Z,-2.70
2023-01-19T23:34:07.493Z,-2.80
2023-01-19T23:36:36.666Z,-2.80
2023-01-19T23:39:18.184Z,-2.80
2023-01-19T23:41:45.247Z,-2.80
2023-01-19T23:44:12.191Z,-2.80
2023-01-19T23:46:39.179Z,-2.80
2023-01-19T23:49:06.041Z,-2.80
2023-01-19T23:51:33.543Z,-2.80
2023-01-19T23:54:00.773Z,-2.70
2023-01-19T23:56:30.401Z,-2.80
2023-01-19T23:59:06.198Z,-2.80
